Terminal Aerodrome Forecast
Issued by NWS Blacksburg, VA

Home | Current Version | Previous Version | Text Only | Print | Product List | Glossary On
Versions: 1 2 3 4 5 6 7 8 9 10 11 12 13 14 15 16 17 18 19 20 21 22 23 24 25 26
000
FTUS41 KRNK 261145
TAFDAN
TAF
KDAN 261145Z 2612/2712 11003KT P6SM OVC020
     FM261800 16007KT P6SM BKN025 OVC060
     FM270300 22004KT 6SM -SHRA SCT015 OVC025
     FM270600 24005KT 4SM -SHRA BR OVC015=

USA.gov is the U.S. government's official web portal to all federal, state and local government web resources and services.